sensor_id;sensor_type;location;lat;lon;timestamp;P1;durP1;ratioP1;P2;durP2;ratioP2
21420;SDS011;10871;50.144;8.428;2022-09-21T00:01:04;6.38;;;4.00;;
21420;SDS011;10871;50.144;8.428;2022-09-21T00:03:31;4.78;;;3.33;;
21420;SDS011;10871;50.144;8.428;2022-09-21T00:06:01;7.50;;;3.65;;
21420;SDS011;10871;50.144;8.428;2022-09-21T00:08:27;6.40;;;3.60;;
21420;SDS011;10871;50.144;8.428;2022-09-21T00:10:53;6.53;;;3.88;;
21420;SDS011;10871;50.144;8.428;2022-09-21T00:13:20;6.82;;;4.25;;
21420;SDS011;10871;50.144;8.428;2022-09-21T00:15:46;8.00;;;4.22;;
21420;SDS011;10871;50.144;8.428;2022-09-21T00:18:12;9.25;;;3.55;;
21420;SDS011;10871;50.144;8.428;2022-09-21T00:20:42;5.28;;;3.67;;
21420;SDS011;10871;50.144;8.428;2022-09-21T00:23:08;6.18;;;3.80;;
21420;SDS011;10871;50.144;8.428;2022-09-21T00:25:35;5.43;;;3.90;;
21420;SDS011;10871;50.144;8.428;2022-09-21T00:28:01;6.45;;;3.70;;
21420;SDS011;10871;50.144;8.428;2022-09-21T00:30:27;8.68;;;4.13;;
21420;SDS011;10871;50.144;8.428;2022-09-21T00:32:54;7.00;;;3.42;;
21420;SDS011;10871;50.144;8.428;2022-09-21T00:35:20;7.72;;;3.88;;
21420;SDS011;10871;50.144;8.428;2022-09-21T00:37:46;4.40;;;3.33;;
21420;SDS011;10871;50.144;8.428;2022-09-21T00:40:12;6.30;;;3.38;;
21420;SDS011;10871;50.144;8.428;2022-09-21T00:42:39;5.40;;;3.50;;
21420;SDS011;10871;50.144;8.428;2022-09-21T00:45:05;10.65;;;3.20;;
21420;SDS011;10871;50.144;8.428;2022-09-21T00:49:58;7.88;;;3.75;;
21420;SDS011;10871;50.144;8.428;2022-09-21T00:52:25;10.75;;;4.20;;
21420;SDS011;10871;50.144;8.428;2022-09-21T00:54:54;7.07;;;3.63;;
21420;SDS011;10871;50.144;8.428;2022-09-21T00:57:21;10.50;;;3.80;;
21420;SDS011;10871;50.144;8.428;2022-09-21T00:59:50;6.68;;;4.03;;
21420;SDS011;10871;50.144;8.428;2022-09-21T01:02:17;10.43;;;4.05;;
21420;SDS011;10871;50.144;8.428;2022-09-21T01:04:43;11.55;;;3.67;;
21420;SDS011;10871;50.144;8.428;2022-09-21T01:07:12;6.00;;;3.78;;
21420;SDS011;10871;50.144;8.428;2022-09-21T01:09:40;8.57;;;4.10;;
21420;SDS011;10871;50.144;8.428;2022-09-21T01:14:56;7.82;;;4.30;;
21420;SDS011;10871;50.144;8.428;2022-09-21T01:30:34;5.88;;;3.42;;
21420;SDS011;10871;50.144;8.428;2022-09-21T01:35:59;7.68;;;3.40;;
21420;SDS011;10871;50.144;8.428;2022-09-21T01:38:28;8.32;;;3.63;;
21420;SDS011;10871;50.144;8.428;2022-09-21T01:40:59;8.10;;;3.63;;
21420;SDS011;10871;50.144;8.428;2022-09-21T01:43:30;6.82;;;3.50;;
21420;SDS011;10871;50.144;8.428;2022-09-21T01:45:57;9.55;;;3.65;;
21420;SDS011;10871;50.144;8.428;2022-09-21T01:48:27;7.90;;;3.42;;
21420;SDS011;10871;50.144;8.428;2022-09-21T01:50:56;7.32;;;3.15;;
21420;SDS011;10871;50.144;8.428;2022-09-21T01:53:25;6.45;;;3.35;;
21420;SDS011;10871;50.144;8.428;2022-09-21T01:55:57;5.88;;;3.17;;
21420;SDS011;10871;50.144;8.428;2022-09-21T02:00:51;4.50;;;3.25;;
21420;SDS011;10871;50.144;8.428;2022-09-21T02:05:55;10.95;;;4.00;;
21420;SDS011;10871;50.144;8.428;2022-09-21T02:08:22;4.97;;;3.50;;
21420;SDS011;10871;50.144;8.428;2022-09-21T02:10:52;5.35;;;3.22;;
21420;SDS011;10871;50.144;8.428;2022-09-21T02:13:19;7.03;;;3.67;;
21420;SDS011;10871;50.144;8.428;2022-09-21T02:20:58;4.63;;;3.70;;
21420;SDS011;10871;50.144;8.428;2022-09-21T02:23:27;5.60;;;3.40;;
21420;SDS011;10871;50.144;8.428;2022-09-21T02:26:02;4.78;;;3.50;;
21420;SDS011;10871;50.144;8.428;2022-09-21T02:28:35;10.73;;;3.42;;
21420;SDS011;10871;50.144;8.428;2022-09-21T02:36:18;5.82;;;3.65;;
21420;SDS011;10871;50.144;8.428;2022-09-21T02:38:48;5.22;;;3.47;;
21420;SDS011;10871;50.144;8.428;2022-09-21T02:41:23;5.70;;;3.75;;
21420;SDS011;10871;50.144;8.428;2022-09-21T02:44:01;6.70;;;3.78;;
21420;SDS011;10871;50.144;8.428;2022-09-21T02:49:03;5.65;;;3.47;;
21420;SDS011;10871;50.144;8.428;2022-09-21T02:51:47;7.40;;;4.00;;
21420;SDS011;10871;50.144;8.428;2022-09-21T02:54:16;7.78;;;3.45;;
21420;SDS011;10871;50.144;8.428;2022-09-21T02:56:43;7.65;;;3.40;;
21420;SDS011;10871;50.144;8.428;2022-09-21T02:59:11;7.05;;;3.40;;
21420;SDS011;10871;50.144;8.428;2022-09-21T03:01:39;7.43;;;3.33;;
21420;SDS011;10871;50.144;8.428;2022-09-21T03:04:05;4.60;;;3.45;;
21420;SDS011;10871;50.144;8.428;2022-09-21T03:06:32;3.72;;;3.03;;
21420;SDS011;10871;50.144;8.428;2022-09-21T03:08:59;7.40;;;3.25;;
21420;SDS011;10871;50.144;8.428;2022-09-21T03:11:25;4.95;;;3.20;;
21420;SDS011;10871;50.144;8.428;2022-09-21T03:13:51;10.73;;;3.83;;
21420;SDS011;10871;50.144;8.428;2022-09-21T03:16:18;11.60;;;3.70;;
21420;SDS011;10871;50.144;8.428;2022-09-21T03:18:44;9.10;;;3.70;;
21420;SDS011;10871;50.144;8.428;2022-09-21T03:21:11;5.05;;;3.25;;
21420;SDS011;10871;50.144;8.428;2022-09-21T03:23:38;12.35;;;3.55;;
21420;SDS011;10871;50.144;8.428;2022-09-21T03:26:04;7.25;;;3.47;;
21420;SDS011;10871;50.144;8.428;2022-09-21T03:28:30;4.90;;;3.72;;
21420;SDS011;10871;50.144;8.428;2022-09-21T03:30:57;9.00;;;4.00;;
21420;SDS011;10871;50.144;8.428;2022-09-21T03:33:24;7.80;;;3.92;;
21420;SDS011;10871;50.144;8.428;2022-09-21T03:35:51;5.18;;;3.60;;
21420;SDS011;10871;50.144;8.428;2022-09-21T03:38:17;5.63;;;3.60;;
21420;SDS011;10871;50.144;8.428;2022-09-21T03:40:47;7.55;;;3.90;;
21420;SDS011;10871;50.144;8.428;2022-09-21T03:43:14;5.18;;;3.97;;
21420;SDS011;10871;50.144;8.428;2022-09-21T03:45:40;9.35;;;4.35;;
21420;SDS011;10871;50.144;8.428;2022-09-21T03:48:08;6.10;;;3.90;;
21420;SDS011;10871;50.144;8.428;2022-09-21T03:50:35;13.40;;;4.00;;
21420;SDS011;10871;50.144;8.428;2022-09-21T03:53:01;6.10;;;4.55;;
21420;SDS011;10871;50.144;8.428;2022-09-21T03:55:27;4.53;;;4.00;;
21420;SDS011;10871;50.144;8.428;2022-09-21T03:57:54;9.27;;;4.38;;
21420;SDS011;10871;50.144;8.428;2022-09-21T04:00:21;10.93;;;4.28;;
21420;SDS011;10871;50.144;8.428;2022-09-21T04:02:47;7.57;;;4.60;;
21420;SDS011;10871;50.144;8.428;2022-09-21T04:05:14;8.70;;;4.38;;
21420;SDS011;10871;50.144;8.428;2022-09-21T04:07:41;6.05;;;4.32;;
21420;SDS011;10871;50.144;8.428;2022-09-21T04:10:09;8.65;;;4.63;;
21420;SDS011;10871;50.144;8.428;2022-09-21T04:12:38;9.40;;;4.32;;
21420;SDS011;10871;50.144;8.428;2022-09-21T04:15:12;9.32;;;4.65;;
21420;SDS011;10871;50.144;8.428;2022-09-21T04:17:39;7.07;;;4.05;;
21420;SDS011;10871;50.144;8.428;2022-09-21T04:20:06;7.85;;;4.18;;
21420;SDS011;10871;50.144;8.428;2022-09-21T04:22:37;5.53;;;3.88;;
21420;SDS011;10871;50.144;8.428;2022-09-21T04:25:09;5.93;;;3.75;;
21420;SDS011;10871;50.144;8.428;2022-09-21T04:27:35;7.93;;;4.13;;
21420;SDS011;10871;50.144;8.428;2022-09-21T04:30:01;8.20;;;3.75;;
21420;SDS011;10871;50.144;8.428;2022-09-21T04:32:28;7.10;;;4.35;;
21420;SDS011;10871;50.144;8.428;2022-09-21T04:34:54;6.88;;;4.25;;
21420;SDS011;10871;50.144;8.428;2022-09-21T04:37:20;8.65;;;4.05;;
21420;SDS011;10871;50.144;8.428;2022-09-21T04:39:47;8.73;;;4.38;;
21420;SDS011;10871;50.144;8.428;2022-09-21T04:42:13;9.30;;;4.45;;
21420;SDS011;10871;50.144;8.428;2022-09-21T04:44:39;8.88;;;4.07;;
21420;SDS011;10871;50.144;8.428;2022-09-21T04:47:06;8.35;;;4.28;;
21420;SDS011;10871;50.144;8.428;2022-09-21T04:49:32;9.45;;;4.63;;
21420;SDS011;10871;50.144;8.428;2022-09-21T04:51:59;8.02;;;4.18;;
21420;SDS011;10871;50.144;8.428;2022-09-21T04:54:25;7.47;;;4.15;;
21420;SDS011;10871;50.144;8.428;2022-09-21T04:56:52;8.60;;;4.20;;
21420;SDS011;10871;50.144;8.428;2022-09-21T04:59:18;5.90;;;5.00;;
21420;SDS011;10871;50.144;8.428;2022-09-21T05:01:44;9.63;;;4.30;;
21420;SDS011;10871;50.144;8.428;2022-09-21T05:04:11;7.90;;;4.65;;
21420;SDS011;10871;50.144;8.428;2022-09-21T05:06:37;8.15;;;4.38;;
21420;SDS011;10871;50.144;8.428;2022-09-21T05:09:03;9.35;;;4.10;;
21420;SDS011;10871;50.144;8.428;2022-09-21T05:11:48;7.95;;;4.40;;
21420;SDS011;10871;50.144;8.428;2022-09-21T05:14:15;9.73;;;5.03;;
21420;SDS011;10871;50.144;8.428;2022-09-21T05:16:41;10.50;;;4.80;;
21420;SDS011;10871;50.144;8.428;2022-09-21T05:19:07;6.95;;;4.57;;
21420;SDS011;10871;50.144;8.428;2022-09-21T05:21:34;10.07;;;4.53;;
21420;SDS011;10871;50.144;8.428;2022-09-21T05:24:01;6.85;;;4.53;;
21420;SDS011;10871;50.144;8.428;2022-09-21T05:26:28;10.13;;;4.93;;
21420;SDS011;10871;50.144;8.428;2022-09-21T05:28:54;8.52;;;4.32;;
21420;SDS011;10871;50.144;8.428;2022-09-21T05:34:16;6.75;;;3.97;;
21420;SDS011;10871;50.144;8.428;2022-09-21T05:37:00;5.22;;;4.05;;
21420;SDS011;10871;50.144;8.428;2022-09-21T05:39:27;12.68;;;4.75;;
21420;SDS011;10871;50.144;8.428;2022-09-21T05:41:54;8.52;;;4.32;;
21420;SDS011;10871;50.144;8.428;2022-09-21T05:44:20;9.10;;;4.97;;
21420;SDS011;10871;50.144;8.428;2022-09-21T05:46:58;10.32;;;4.13;;
21420;SDS011;10871;50.144;8.428;2022-09-21T05:57:40;9.70;;;4.88;;
21420;SDS011;10871;50.144;8.428;2022-09-21T06:00:14;10.30;;;4.70;;
21420;SDS011;10871;50.144;8.428;2022-09-21T06:05:09;5.97;;;4.03;;
21420;SDS011;10871;50.144;8.428;2022-09-21T06:07:36;7.40;;;4.25;;
21420;SDS011;10871;50.144;8.428;2022-09-21T06:10:03;9.73;;;4.75;;
21420;SDS011;10871;50.144;8.428;2022-09-21T06:12:29;9.85;;;4.28;;
21420;SDS011;10871;50.144;8.428;2022-09-21T06:14:55;8.07;;;4.53;;
21420;SDS011;10871;50.144;8.428;2022-09-21T06:17:22;10.00;;;4.70;;
21420;SDS011;10871;50.144;8.428;2022-09-21T06:19:48;9.43;;;4.90;;
21420;SDS011;10871;50.144;8.428;2022-09-21T06:22:14;12.10;;;5.63;;
21420;SDS011;10871;50.144;8.428;2022-09-21T06:24:40;7.93;;;4.47;;
21420;SDS011;10871;50.144;8.428;2022-09-21T06:27:07;7.70;;;5.10;;
21420;SDS011;10871;50.144;8.428;2022-09-21T06:29:33;10.75;;;4.80;;
21420;SDS011;10871;50.144;8.428;2022-09-21T06:32:00;6.47;;;4.22;;
21420;SDS011;10871;50.144;8.428;2022-09-21T06:34:26;11.02;;;4.55;;
21420;SDS011;10871;50.144;8.428;2022-09-21T06:36:53;6.05;;;4.32;;
21420;SDS011;10871;50.144;8.428;2022-09-21T06:39:19;6.57;;;3.72;;
21420;SDS011;10871;50.144;8.428;2022-09-21T06:41:45;3.90;;;3.17;;
21420;SDS011;10871;50.144;8.428;2022-09-21T06:44:11;4.00;;;2.53;;
21420;SDS011;10871;50.144;8.428;2022-09-21T06:46:38;4.85;;;3.03;;
21420;SDS011;10871;50.144;8.428;2022-09-21T06:49:04;3.72;;;2.30;;
21420;SDS011;10871;50.144;8.428;2022-09-21T06:51:30;5.63;;;2.42;;
21420;SDS011;10871;50.144;8.428;2022-09-21T06:53:57;3.55;;;2.33;;
21420;SDS011;10871;50.144;8.428;2022-09-21T06:56:24;3.00;;;2.10;;
21420;SDS011;10871;50.144;8.428;2022-09-21T06:58:50;4.10;;;2.30;;
21420;SDS011;10871;50.144;8.428;2022-09-21T07:01:17;4.07;;;2.30;;
21420;SDS011;10871;50.144;8.428;2022-09-21T07:03:47;3.65;;;2.40;;
21420;SDS011;10871;50.144;8.428;2022-09-21T07:06:13;5.50;;;3.00;;
21420;SDS011;10871;50.144;8.428;2022-09-21T07:08:41;4.40;;;3.08;;
21420;SDS011;10871;50.144;8.428;2022-09-21T07:11:27;4.75;;;3.05;;
21420;SDS011;10871;50.144;8.428;2022-09-21T07:13:54;6.57;;;3.92;;
21420;SDS011;10871;50.144;8.428;2022-09-21T07:16:21;4.60;;;2.88;;
21420;SDS011;10871;50.144;8.428;2022-09-21T07:18:48;4.90;;;2.72;;
21420;SDS011;10871;50.144;8.428;2022-09-21T07:21:15;3.47;;;2.70;;
21420;SDS011;10871;50.144;8.428;2022-09-21T07:23:41;3.58;;;2.50;;
21420;SDS011;10871;50.144;8.428;2022-09-21T07:26:09;4.38;;;2.22;;
21420;SDS011;10871;50.144;8.428;2022-09-21T07:28:35;4.35;;;2.10;;
21420;SDS011;10871;50.144;8.428;2022-09-21T07:31:06;5.38;;;1.85;;
21420;SDS011;10871;50.144;8.428;2022-09-21T07:33:34;5.10;;;1.88;;
21420;SDS011;10871;50.144;8.428;2022-09-21T07:36:01;4.53;;;2.20;;
21420;SDS011;10871;50.144;8.428;2022-09-21T07:38:35;9.48;;;2.50;;
21420;SDS011;10871;50.144;8.428;2022-09-21T07:41:02;4.50;;;2.13;;
21420;SDS011;10871;50.144;8.428;2022-09-21T07:43:28;4.32;;;2.08;;
21420;SDS011;10871;50.144;8.428;2022-09-21T07:45:55;2.72;;;1.85;;
21420;SDS011;10871;50.144;8.428;2022-09-21T07:48:21;4.60;;;2.03;;
21420;SDS011;10871;50.144;8.428;2022-09-21T07:50:48;8.82;;;2.25;;
21420;SDS011;10871;50.144;8.428;2022-09-21T07:53:14;2.88;;;2.00;;
21420;SDS011;10871;50.144;8.428;2022-09-21T07:55:42;11.13;;;3.00;;
21420;SDS011;10871;50.144;8.428;2022-09-21T07:58:09;3.63;;;2.05;;
21420;SDS011;10871;50.144;8.428;2022-09-21T08:00:54;6.53;;;2.10;;
21420;SDS011;10871;50.144;8.428;2022-09-21T08:03:20;3.88;;;2.13;;
21420;SDS011;10871;50.144;8.428;2022-09-21T08:05:46;4.75;;;2.10;;
21420;SDS011;10871;50.144;8.428;2022-09-21T08:08:13;6.55;;;2.53;;
21420;SDS011;10871;50.144;8.428;2022-09-21T08:10:40;3.58;;;2.05;;
21420;SDS011;10871;50.144;8.428;2022-09-21T08:13:06;5.65;;;2.08;;
21420;SDS011;10871;50.144;8.428;2022-09-21T08:15:33;5.85;;;2.17;;
21420;SDS011;10871;50.144;8.428;2022-09-21T08:18:15;5.72;;;2.00;;
21420;SDS011;10871;50.144;8.428;2022-09-21T08:20:42;3.45;;;1.98;;
21420;SDS011;10871;50.144;8.428;2022-09-21T08:23:09;6.30;;;2.22;;
21420;SDS011;10871;50.144;8.428;2022-09-21T08:25:35;5.10;;;2.13;;
21420;SDS011;10871;50.144;8.428;2022-09-21T08:28:02;5.85;;;2.03;;
21420;SDS011;10871;50.144;8.428;2022-09-21T08:30:34;4.27;;;2.13;;
21420;SDS011;10871;50.144;8.428;2022-09-21T08:33:01;3.08;;;2.40;;
21420;SDS011;10871;50.144;8.428;2022-09-21T08:35:28;4.25;;;2.15;;
21420;SDS011;10871;50.144;8.428;2022-09-21T08:37:54;3.95;;;2.13;;
21420;SDS011;10871;50.144;8.428;2022-09-21T08:40:21;5.40;;;1.92;;
21420;SDS011;10871;50.144;8.428;2022-09-21T08:42:51;5.65;;;2.20;;
21420;SDS011;10871;50.144;8.428;2022-09-21T08:45:21;4.63;;;2.25;;
21420;SDS011;10871;50.144;8.428;2022-09-21T08:47:50;4.93;;;2.20;;
21420;SDS011;10871;50.144;8.428;2022-09-21T08:52:50;2.83;;;1.88;;
21420;SDS011;10871;50.144;8.428;2022-09-21T08:55:18;3.20;;;1.67;;
21420;SDS011;10871;50.144;8.428;2022-09-21T08:57:45;3.70;;;1.92;;
21420;SDS011;10871;50.144;8.428;2022-09-21T09:00:12;4.57;;;2.35;;
21420;SDS011;10871;50.144;8.428;2022-09-21T09:10:37;5.05;;;2.03;;
21420;SDS011;10871;50.144;8.428;2022-09-21T09:19:10;5.22;;;2.10;;
21420;SDS011;10871;50.144;8.428;2022-09-21T09:21:41;8.68;;;2.20;;
21420;SDS011;10871;50.144;8.428;2022-09-21T09:26:54;4.82;;;2.20;;
21420;SDS011;10871;50.144;8.428;2022-09-21T09:31:53;3.72;;;2.08;;
21420;SDS011;10871;50.144;8.428;2022-09-21T09:34:22;5.22;;;1.95;;
21420;SDS011;10871;50.144;8.428;2022-09-21T09:36:51;6.05;;;2.03;;
21420;SDS011;10871;50.144;8.428;2022-09-21T09:39:24;3.95;;;1.80;;
21420;SDS011;10871;50.144;8.428;2022-09-21T09:41:56;5.82;;;2.00;;
21420;SDS011;10871;50.144;8.428;2022-09-21T09:51:45;3.75;;;1.70;;
21420;SDS011;10871;50.144;8.428;2022-09-21T09:54:13;2.67;;;1.60;;
21420;SDS011;10871;50.144;8.428;2022-09-21T09:56:40;4.65;;;1.73;;
21420;SDS011;10871;50.144;8.428;2022-09-21T10:02:04;3.35;;;1.60;;
21420;SDS011;10871;50.144;8.428;2022-09-21T10:04:31;3.42;;;1.85;;
21420;SDS011;10871;50.144;8.428;2022-09-21T10:06:59;3.45;;;1.73;;
21420;SDS011;10871;50.144;8.428;2022-09-21T10:09:30;5.97;;;2.53;;
21420;SDS011;10871;50.144;8.428;2022-09-21T10:12:14;4.13;;;1.85;;
21420;SDS011;10871;50.144;8.428;2022-09-21T10:14:43;3.33;;;1.92;;
21420;SDS011;10871;50.144;8.428;2022-09-21T10:17:14;5.33;;;1.80;;
21420;SDS011;10871;50.144;8.428;2022-09-21T10:19:41;4.15;;;2.00;;
21420;SDS011;10871;50.144;8.428;2022-09-21T10:22:12;5.40;;;1.80;;
21420;SDS011;10871;50.144;8.428;2022-09-21T10:24:40;3.72;;;1.73;;
21420;SDS011;10871;50.144;8.428;2022-09-21T10:27:12;2.63;;;1.60;;
21420;SDS011;10871;50.144;8.428;2022-09-21T10:29:43;6.50;;;1.77;;
21420;SDS011;10871;50.144;8.428;2022-09-21T10:34:40;5.50;;;1.60;;
21420;SDS011;10871;50.144;8.428;2022-09-21T10:39:48;2.63;;;1.48;;
21420;SDS011;10871;50.144;8.428;2022-09-21T10:42:16;2.42;;;1.52;;
21420;SDS011;10871;50.144;8.428;2022-09-21T10:44:43;3.00;;;1.52;;
21420;SDS011;10871;50.144;8.428;2022-09-21T10:47:17;3.05;;;1.60;;
21420;SDS011;10871;50.144;8.428;2022-09-21T10:49:51;2.78;;;1.40;;
21420;SDS011;10871;50.144;8.428;2022-09-21T10:52:19;3.03;;;1.10;;
21420;SDS011;10871;50.144;8.428;2022-09-21T10:54:47;3.13;;;1.20;;
21420;SDS011;10871;50.144;8.428;2022-09-21T10:57:14;2.95;;;1.05;;
21420;SDS011;10871;50.144;8.428;2022-09-21T10:59:42;3.03;;;1.10;;
21420;SDS011;10871;50.144;8.428;2022-09-21T11:02:26;1.65;;;1.00;;
21420;SDS011;10871;50.144;8.428;2022-09-21T11:04:56;1.83;;;0.90;;
21420;SDS011;10871;50.144;8.428;2022-09-21T11:07:28;2.35;;;1.20;;
21420;SDS011;10871;50.144;8.428;2022-09-21T11:09:58;2.17;;;1.27;;
21420;SDS011;10871;50.144;8.428;2022-09-21T11:12:32;3.53;;;1.30;;
21420;SDS011;10871;50.144;8.428;2022-09-21T11:15:10;4.47;;;1.40;;
21420;SDS011;10871;50.144;8.428;2022-09-21T11:17:42;2.60;;;1.00;;
21420;SDS011;10871;50.144;8.428;2022-09-21T11:22:41;2.33;;;1.30;;
21420;SDS011;10871;50.144;8.428;2022-09-21T11:27:37;3.97;;;1.55;;
21420;SDS011;10871;50.144;8.428;2022-09-21T11:37:39;3.97;;;1.50;;
21420;SDS011;10871;50.144;8.428;2022-09-21T11:42:44;2.88;;;1.17;;
21420;SDS011;10871;50.144;8.428;2022-09-21T11:45:19;2.40;;;1.20;;
21420;SDS011;10871;50.144;8.428;2022-09-21T11:48:04;4.32;;;1.13;;
21420;SDS011;10871;50.144;8.428;2022-09-21T11:58:29;2.10;;;1.10;;
21420;SDS011;10871;50.144;8.428;2022-09-21T12:06:10;2.53;;;1.00;;
21420;SDS011;10871;50.144;8.428;2022-09-21T12:11:24;4.30;;;1.10;;
21420;SDS011;10871;50.144;8.428;2022-09-21T12:13:55;3.25;;;1.20;;
21420;SDS011;10871;50.144;8.428;2022-09-21T12:16:35;3.67;;;1.10;;
21420;SDS011;10871;50.144;8.428;2022-09-21T12:21:38;1.65;;;1.00;;
21420;SDS011;10871;50.144;8.428;2022-09-21T12:26:39;3.83;;;0.90;;
21420;SDS011;10871;50.144;8.428;2022-09-21T12:29:11;1.35;;;0.88;;
21420;SDS011;10871;50.144;8.428;2022-09-21T12:34:11;1.80;;;1.08;;
21420;SDS011;10871;50.144;8.428;2022-09-21T12:36:45;2.20;;;0.80;;
21420;SDS011;10871;50.144;8.428;2022-09-21T12:39:28;3.47;;;1.30;;
21420;SDS011;10871;50.144;8.428;2022-09-21T12:42:02;2.55;;;1.00;;
21420;SDS011;10871;50.144;8.428;2022-09-21T12:47:26;4.22;;;1.30;;
21420;SDS011;10871;50.144;8.428;2022-09-21T12:50:02;1.65;;;0.95;;
21420;SDS011;10871;50.144;8.428;2022-09-21T12:52:30;2.85;;;1.33;;
21420;SDS011;10871;50.144;8.428;2022-09-21T12:55:10;2.08;;;0.95;;
21420;SDS011;10871;50.144;8.428;2022-09-21T12:57:51;4.03;;;1.15;;
21420;SDS011;10871;50.144;8.428;2022-09-21T13:00:50;2.78;;;1.00;;
21420;SDS011;10871;50.144;8.428;2022-09-21T13:03:33;1.08;;;0.73;;
21420;SDS011;10871;50.144;8.428;2022-09-21T13:06:05;1.77;;;1.00;;
21420;SDS011;10871;50.144;8.428;2022-09-21T13:08:34;4.28;;;1.00;;
21420;SDS011;10871;50.144;8.428;2022-09-21T13:11:04;1.98;;;0.98;;
21420;SDS011;10871;50.144;8.428;2022-09-21T13:16:02;1.77;;;1.08;;
21420;SDS011;10871;50.144;8.428;2022-09-21T13:21:13;1.98;;;1.00;;
21420;SDS011;10871;50.144;8.428;2022-09-21T13:23:40;1.17;;;0.70;;
21420;SDS011;10871;50.144;8.428;2022-09-21T13:26:08;2.33;;;1.30;;
21420;SDS011;10871;50.144;8.428;2022-09-21T13:28:39;1.88;;;0.75;;
21420;SDS011;10871;50.144;8.428;2022-09-21T13:36:40;1.85;;;0.70;;
21420;SDS011;10871;50.144;8.428;2022-09-21T13:41:35;0.82;;;0.60;;
21420;SDS011;10871;50.144;8.428;2022-09-21T13:46:51;0.88;;;0.60;;
21420;SDS011;10871;50.144;8.428;2022-09-21T13:49:23;1.52;;;0.60;;
21420;SDS011;10871;50.144;8.428;2022-09-21T13:51:51;1.77;;;0.60;;
21420;SDS011;10871;50.144;8.428;2022-09-21T13:54:19;1.67;;;0.70;;
21420;SDS011;10871;50.144;8.428;2022-09-21T13:56:55;2.03;;;0.93;;
21420;SDS011;10871;50.144;8.428;2022-09-21T13:59:22;1.20;;;0.60;;
21420;SDS011;10871;50.144;8.428;2022-09-21T14:01:49;1.33;;;0.68;;
21420;SDS011;10871;50.144;8.428;2022-09-21T14:04:21;1.00;;;0.60;;
21420;SDS011;10871;50.144;8.428;2022-09-21T14:06:49;2.72;;;0.80;;
21420;SDS011;10871;50.144;8.428;2022-09-21T14:09:27;1.95;;;0.75;;
21420;SDS011;10871;50.144;8.428;2022-09-21T14:11:55;2.50;;;0.70;;
21420;SDS011;10871;50.144;8.428;2022-09-21T14:14:25;2.13;;;0.60;;
21420;SDS011;10871;50.144;8.428;2022-09-21T14:16:53;2.47;;;0.80;;
21420;SDS011;10871;50.144;8.428;2022-09-21T14:19:57;2.13;;;0.50;;
21420;SDS011;10871;50.144;8.428;2022-09-21T14:24:41;0.50;;;0.50;;
21420;SDS011;10871;50.144;8.428;2022-09-21T14:27:19;1.88;;;0.70;;
21420;SDS011;10871;50.144;8.428;2022-09-21T14:29:51;2.00;;;0.60;;
21420;SDS011;10871;50.144;8.428;2022-09-21T14:32:22;2.05;;;0.70;;
21420;SDS011;10871;50.144;8.428;2022-09-21T14:34:51;1.48;;;0.80;;
21420;SDS011;10871;50.144;8.428;2022-09-21T14:37:27;1.13;;;0.60;;
21420;SDS011;10871;50.144;8.428;2022-09-21T14:39:55;1.08;;;0.60;;
21420;SDS011;10871;50.144;8.428;2022-09-21T14:42:23;1.00;;;0.70;;
21420;SDS011;10871;50.144;8.428;2022-09-21T14:44:52;2.75;;;0.68;;
21420;SDS011;10871;50.144;8.428;2022-09-21T14:50:23;0.63;;;0.55;;
21420;SDS011;10871;50.144;8.428;2022-09-21T14:52:56;1.67;;;0.80;;
21420;SDS011;10871;50.144;8.428;2022-09-21T15:00:38;1.02;;;0.60;;
21420;SDS011;10871;50.144;8.428;2022-09-21T15:05:35;0.98;;;0.60;;
21420;SDS011;10871;50.144;8.428;2022-09-21T15:08:21;1.50;;;0.50;;
21420;SDS011;10871;50.144;8.428;2022-09-21T15:11:21;1.42;;;0.60;;
21420;SDS011;10871;50.144;8.428;2022-09-21T15:19:07;1.70;;;0.60;;
21420;SDS011;10871;50.144;8.428;2022-09-21T15:21:35;1.48;;;0.60;;
21420;SDS011;10871;50.144;8.428;2022-09-21T15:24:25;1.17;;;0.85;;
21420;SDS011;10871;50.144;8.428;2022-09-21T15:26:53;2.05;;;0.65;;
21420;SDS011;10871;50.144;8.428;2022-09-21T15:29:23;1.25;;;0.80;;
21420;SDS011;10871;50.144;8.428;2022-09-21T15:31:51;3.13;;;0.77;;
21420;SDS011;10871;50.144;8.428;2022-09-21T15:34:17;2.33;;;0.70;;
21420;SDS011;10871;50.144;8.428;2022-09-21T15:36:44;1.35;;;0.60;;
21420;SDS011;10871;50.144;8.428;2022-09-21T15:39:20;1.63;;;0.70;;
21420;SDS011;10871;50.144;8.428;2022-09-21T15:41:48;1.48;;;0.80;;
21420;SDS011;10871;50.144;8.428;2022-09-21T15:44:22;2.08;;;0.90;;
21420;SDS011;10871;50.144;8.428;2022-09-21T15:46:49;4.05;;;0.80;;
21420;SDS011;10871;50.144;8.428;2022-09-21T15:49:18;0.88;;;0.63;;
21420;SDS011;10871;50.144;8.428;2022-09-21T15:51:47;1.63;;;0.60;;
21420;SDS011;10871;50.144;8.428;2022-09-21T15:54:28;1.35;;;0.70;;
21420;SDS011;10871;50.144;8.428;2022-09-21T15:56:57;1.17;;;0.70;;
21420;SDS011;10871;50.144;8.428;2022-09-21T15:59:24;1.30;;;0.70;;
21420;SDS011;10871;50.144;8.428;2022-09-21T16:01:52;1.10;;;0.60;;
21420;SDS011;10871;50.144;8.428;2022-09-21T16:04:20;1.70;;;0.88;;
21420;SDS011;10871;50.144;8.428;2022-09-21T16:07:00;1.63;;;0.70;;
21420;SDS011;10871;50.144;8.428;2022-09-21T16:12:03;4.43;;;1.30;;
21420;SDS011;10871;50.144;8.428;2022-09-21T16:14:48;2.28;;;0.73;;
21420;SDS011;10871;50.144;8.428;2022-09-21T16:22:19;2.28;;;0.77;;
21420;SDS011;10871;50.144;8.428;2022-09-21T16:24:48;2.67;;;0.70;;
21420;SDS011;10871;50.144;8.428;2022-09-21T16:27:16;3.13;;;0.80;;
21420;SDS011;10871;50.144;8.428;2022-09-21T16:29:45;2.67;;;1.70;;
21420;SDS011;10871;50.144;8.428;2022-09-21T16:34:45;1.95;;;0.80;;
21420;SDS011;10871;50.144;8.428;2022-09-21T16:37:21;4.50;;;1.00;;
21420;SDS011;10871;50.144;8.428;2022-09-21T16:39:52;1.90;;;0.90;;
21420;SDS011;10871;50.144;8.428;2022-09-21T16:42:20;1.63;;;1.05;;
21420;SDS011;10871;50.144;8.428;2022-09-21T16:44:47;1.70;;;0.90;;
21420;SDS011;10871;50.144;8.428;2022-09-21T16:47:16;2.97;;;0.88;;
21420;SDS011;10871;50.144;8.428;2022-09-21T16:49:43;1.00;;;0.90;;
21420;SDS011;10871;50.144;8.428;2022-09-21T16:52:10;0.80;;;0.70;;
21420;SDS011;10871;50.144;8.428;2022-09-21T16:54:37;2.00;;;1.35;;
21420;SDS011;10871;50.144;8.428;2022-09-21T16:57:04;2.90;;;2.10;;
21420;SDS011;10871;50.144;8.428;2022-09-21T16:59:32;3.05;;;1.50;;
21420;SDS011;10871;50.144;8.428;2022-09-21T17:02:00;3.42;;;2.10;;
21420;SDS011;10871;50.144;8.428;2022-09-21T17:04:31;2.75;;;1.30;;
21420;SDS011;10871;50.144;8.428;2022-09-21T17:06:58;1.70;;;1.17;;
21420;SDS011;10871;50.144;8.428;2022-09-21T17:09:34;2.75;;;2.25;;
21420;SDS011;10871;50.144;8.428;2022-09-21T17:12:04;3.85;;;1.45;;
21420;SDS011;10871;50.144;8.428;2022-09-21T17:14:32;2.58;;;1.45;;
21420;SDS011;10871;50.144;8.428;2022-09-21T17:17:08;2.97;;;1.20;;
21420;SDS011;10871;50.144;8.428;2022-09-21T17:19:36;4.57;;;1.75;;
21420;SDS011;10871;50.144;8.428;2022-09-21T17:22:03;2.00;;;1.25;;
21420;SDS011;10871;50.144;8.428;2022-09-21T17:24:30;2.97;;;1.10;;
21420;SDS011;10871;50.144;8.428;2022-09-21T17:27:16;4.85;;;1.25;;
21420;SDS011;10871;50.144;8.428;2022-09-21T17:29:43;1.88;;;1.67;;
21420;SDS011;10871;50.144;8.428;2022-09-21T17:32:16;4.07;;;1.90;;
21420;SDS011;10871;50.144;8.428;2022-09-21T17:34:59;3.97;;;2.10;;
21420;SDS011;10871;50.144;8.428;2022-09-21T17:37:31;2.70;;;1.70;;
21420;SDS011;10871;50.144;8.428;2022-09-21T17:39:59;3.22;;;1.70;;
21420;SDS011;10871;50.144;8.428;2022-09-21T17:42:26;2.95;;;1.40;;
21420;SDS011;10871;50.144;8.428;2022-09-21T17:47:25;2.80;;;1.88;;
21420;SDS011;10871;50.144;8.428;2022-09-21T17:49:56;3.97;;;1.85;;
21420;SDS011;10871;50.144;8.428;2022-09-21T17:52:24;5.65;;;2.60;;
21420;SDS011;10871;50.144;8.428;2022-09-21T17:55:10;5.10;;;2.95;;
21420;SDS011;10871;50.144;8.428;2022-09-21T18:02:43;3.80;;;2.47;;
21420;SDS011;10871;50.144;8.428;2022-09-21T18:05:26;5.13;;;2.20;;